Time;durP1;ratioP1;P1;durP2;ratioP2;P2;SDS_P1;SDS_P2;PMS_P1;PMS_P2;Temp;Humidity;BMP_temperature;BMP_pressure;BME280_temperature;BME280_humidity;BME280_pressure;Samples;Min_cycle;Max_cycle;Signal;HPM_P1;HPM_P2
2022/03/06 00:01:20;;;;;;;;;;;;;;;27.35;58.71;96839.11;588305;241;66478;-73
2022/03/06 00:03:47;;;;;;;;;;;;;;;27.33;57.65;96835.92;588289;241;66500;-73
2022/03/06 00:06:15;;;;;;;;;;;;;;;27.33;56.79;96841.32;588363;241;65348;-73
2022/03/06 00:08:42;;;;;;;;;;;;;;;27.32;57.28;96832.44;588334;241;68633;-73
2022/03/06 00:11:10;;;;;;;;;;;;;;;27.30;57.87;96837.34;588328;241;68622;-73
2022/03/06 00:13:37;;;;;;;;;;;;;;;27.29;57.91;96841.16;588326;241;65108;-73
2022/03/06 00:16:05;;;;;;;;;;;;;;;27.29;58.01;96843.08;588309;241;68320;-73
2022/03/06 00:18:35;;;;;;;;;;;;;;;27.28;58.55;96836.08;588368;241;68649;-73
2022/03/06 00:21:01;;;;;;;;;;;;;;;27.26;57.74;96831.01;588258;241;65250;-73
2022/03/06 00:23:29;;;;;;;;;;;;;;;27.26;58.67;96835.62;588328;241;66716;-73
2022/03/06 00:25:57;;;;;;;;;;;;;;;27.25;57.72;96831.31;588317;241;68723;-73
2022/03/06 00:28:25;;;;;;;;;;;;;;;27.22;58.12;96830.83;588304;241;65453;-73
2022/03/06 00:30:52;;;;;;;;;;;;;;;27.22;58.72;96828.13;588368;241;68715;-73
2022/03/06 00:33:20;;;;;;;;;;;;;;;27.20;58.13;96837.64;588367;238;68702;-74
2022/03/06 00:35:48;;;;;;;;;;;;;;;27.21;58.89;96825.77;588368;241;63077;-74
2022/03/06 00:38:15;;;;;;;;;;;;;;;27.19;58.65;96823.37;588352;241;66448;-75
2022/03/06 00:40:44;;;;;;;;;;;;;;;27.18;58.56;96823.70;588357;241;66537;-74
2022/03/06 00:43:12;;;;;;;;;;;;;;;27.15;57.75;96821.61;588518;238;65406;-75
2022/03/06 00:45:40;;;;;;;;;;;;;;;27.15;59.47;96825.09;589469;240;66435;-75
2022/03/06 00:48:07;;;;;;;;;;;;;;;27.13;58.52;96819.22;589434;240;66487;-75
2022/03/06 00:50:38;;;;;;;;;;;;;;;27.13;58.59;96823.82;589447;240;64226;-75
2022/03/06 00:53:06;;;;;;;;;;;;;;;27.12;59.64;96814.94;589422;240;68759;-74
2022/03/06 00:55:34;;;;;;;;;;;;;;;27.10;58.05;96816.36;589432;240;68520;-74
2022/03/06 00:58:05;;;;;;;;;;;;;;;27.09;58.75;96820.16;589487;240;63040;-74
2022/03/06 01:00:31;;;;;;;;;;;;;;;27.08;58.76;96818.58;589427;239;69463;-74
2022/03/06 01:02:58;;;;;;;;;;;;;;;27.08;60.42;96810.48;589473;240;68215;-74
2022/03/06 01:05:26;;;;;;;;;;;;;;;27.06;59.68;96816.17;589409;240;65384;-74
2022/03/06 01:07:53;;;;;;;;;;;;;;;27.05;58.64;96813.81;589501;240;68637;-74
2022/03/06 01:10:21;;;;;;;;;;;;;;;27.04;57.98;96813.02;589433;240;68866;-74
2022/03/06 01:12:48;;;;;;;;;;;;;;;27.04;58.62;96817.60;589418;240;65074;-74
2022/03/06 01:15:16;;;;;;;;;;;;;;;27.03;59.50;96821.42;589446;240;68741;-73
2022/03/06 01:17:44;;;;;;;;;;;;;;;27.02;59.46;96820.63;589452;240;68544;-72
2022/03/06 01:20:11;;;;;;;;;;;;;;;26.99;59.57;96816.66;589444;239;63893;-74
2022/03/06 01:22:39;;;;;;;;;;;;;;;27.00;58.66;96817.45;589415;240;68607;-74
2022/03/06 01:25:07;;;;;;;;;;;;;;;27.00;59.79;96820.14;589477;240;66483;-75
2022/03/06 01:27:34;;;;;;;;;;;;;;;26.97;59.31;96808.08;589452;239;65284;-74
2022/03/06 01:30:03;;;;;;;;;;;;;;;26.97;59.49;96809.98;589422;238;68342;-74
2022/03/06 01:32:30;;;;;;;;;;;;;;;26.97;58.98;96812.69;589433;240;66533;-74
2022/03/06 01:34:58;;;;;;;;;;;;;;;26.95;58.81;96815.69;589396;240;63120;-74
2022/03/06 01:37:25;;;;;;;;;;;;;;;26.93;58.61;96815.23;589454;239;66597;-74
2022/03/06 01:39:53;;;;;;;;;;;;;;;26.92;59.08;96812.83;589419;240;66472;-74
2022/03/06 01:42:21;;;;;;;;;;;;;;;26.92;59.17;96816.31;589420;240;63026;-74
2022/03/06 01:44:52;;;;;;;;;;;;;;;26.92;59.52;96810.13;586944;240;66527;-73
2022/03/06 01:47:39;;;;;;;;;;;;;;;26.91;59.94;96808.56;586650;242;68748;-73
2022/03/06 01:50:08;;;;;;;;;;;;;;;26.90;59.14;96815.86;586660;242;65433;-74
2022/03/06 01:52:35;;;;;;;;;;;;;;;26.89;59.34;96811.56;586655;242;66572;-74
2022/03/06 01:55:03;;;;;;;;;;;;;;;26.88;59.47;96820.77;586653;242;68379;-74
2022/03/06 01:57:31;;;;;;;;;;;;;;;26.89;59.38;96810.77;586656;242;63921;-74
2022/03/06 01:59:59;;;;;;;;;;;;;;;26.87;59.80;96804.89;586651;242;66580;-74
2022/03/06 02:02:27;;;;;;;;;;;;;;;26.85;59.35;96804.43;586671;242;68540;-74
2022/03/06 02:04:54;;;;;;;;;;;;;;;26.86;60.58;96811.40;586637;242;65379;-74
2022/03/06 02:07:22;;;;;;;;;;;;;;;26.83;59.62;96812.03;586674;242;68681;-74
2022/03/06 02:09:49;;;;;;;;;;;;;;;26.83;59.59;96809.34;586684;242;68742;-74
2022/03/06 02:12:23;;;;;;;;;;;;;;;26.82;59.83;96805.03;586627;242;64957;-75
2022/03/06 02:14:52;;;;;;;;;;;;;;;26.80;60.86;96813.45;586657;242;68834;-74
2022/03/06 02:17:20;;;;;;;;;;;;;;;26.79;60.13;96811.84;586473;240;68425;-74
2022/03/06 02:20:06;;;;;;;;;;;;;;;26.79;59.42;96815.36;586661;242;63355;-74
2022/03/06 02:22:35;;;;;;;;;;;;;;;26.78;58.17;96810.27;586660;242;66563;-74
2022/03/06 02:25:04;;;;;;;;;;;;;;;26.77;59.90;96809.48;586604;242;69058;-74
2022/03/06 02:27:31;;;;;;;;;;;;;;;26.75;60.27;96814.37;586616;240;66236;-74
2022/03/06 02:29:59;;;;;;;;;;;;;;;26.75;59.75;96811.69;586696;242;66428;-74
2022/03/06 02:32:27;;;;;;;;;;;;;;;26.74;60.40;96815.50;586625;242;66521;-74
2022/03/06 02:34:54;;;;;;;;;;;;;;;26.72;60.07;96820.41;586662;242;63009;-74
2022/03/06 02:37:22;;;;;;;;;;;;;;;26.74;60.50;96812.02;586659;242;66488;-75
2022/03/06 02:39:49;;;;;;;;;;;;;;;26.69;60.22;96821.03;586634;242;66486;-74
2022/03/06 02:42:24;;;;;;;;;;;;;;;26.69;60.73;96820.24;586701;242;65477;-74
2022/03/06 02:44:52;;;;;;;;;;;;;;;26.68;60.86;96822.15;588157;241;66171;-74
2022/03/06 02:47:20;;;;;;;;;;;;;;;26.68;61.01;96822.15;588311;241;68909;-76
2022/03/06 02:49:47;;;;;;;;;;;;;;;26.67;61.48;96820.55;588295;241;63105;-76
2022/03/06 02:52:15;;;;;;;;;;;;;;;26.66;60.97;96815.48;588295;241;66769;-76
2022/03/06 02:54:43;;;;;;;;;;;;;;;26.65;61.54;96825.44;588362;240;67506;-76
2022/03/06 02:57:10;;;;;;;;;;;;;;;26.65;60.48;96816.56;588322;241;63086;-76
2022/03/06 02:59:39;;;;;;;;;;;;;;;26.62;60.97;96817.98;588305;241;66530;-76
2022/03/06 03:02:07;;;;;;;;;;;;;;;26.64;57.79;96820.38;588314;241;68770;-76
2022/03/06 03:04:37;;;;;;;;;;;;;;;26.63;60.97;96819.59;588324;241;65482;-76
2022/03/06 03:07:05;;;;;;;;;;;;;;;26.62;60.42;96815.29;588323;241;66413;-76
2022/03/06 03:09:33;;;;;;;;;;;;;;;26.61;61.13;96821.80;588372;241;66479;-76
2022/03/06 03:12:01;;;;;;;;;;;;;;;26.60;58.40;96820.22;588326;241;65454;-76
2022/03/06 03:14:31;;;;;;;;;;;;;;;26.60;60.70;96822.09;588272;241;68633;-76
2022/03/06 03:16:57;;;;;;;;;;;;;;;26.60;59.17;96817.53;588280;240;68636;-76
2022/03/06 03:19:25;;;;;;;;;;;;;;;26.59;59.00;96832.09;588299;240;63001;-76
2022/03/06 03:21:53;;;;;;;;;;;;;;;26.58;61.11;96822.42;588368;241;66475;-76
2022/03/06 03:24:21;;;;;;;;;;;;;;;26.57;60.27;96820.81;588311;241;68843;-76
2022/03/06 03:26:48;;;;;;;;;;;;;;;26.55;61.21;96823.05;588315;241;65377;-74
2022/03/06 03:29:16;;;;;;;;;;;;;;;26.55;59.90;96823.05;588334;240;68649;-75
2022/03/06 03:31:44;;;;;;;;;;;;;;;26.54;61.11;96827.63;588348;241;68033;-74
2022/03/06 03:34:11;;;;;;;;;;;;;;;26.53;59.65;96833.34;588362;240;63016;-74
2022/03/06 03:36:39;;;;;;;;;;;;;;;26.51;61.20;96824.77;588321;240;66188;-74
2022/03/06 03:39:07;;;;;;;;;;;;;;;26.51;61.60;96827.46;588319;241;69750;-74
2022/03/06 03:41:35;;;;;;;;;;;;;;;26.49;61.30;96825.06;588338;241;65235;-74
2022/03/06 03:44:03;;;;;;;;;;;;;;;26.50;61.64;96828.55;588916;240;68316;-74
2022/03/06 03:46:31;;;;;;;;;;;;;;;26.48;61.01;96833.45;589472;240;66407;-74
2022/03/06 03:48:58;;;;;;;;;;;;;;;26.46;60.55;96836.44;589438;240;62829;-74
2022/03/06 03:51:26;;;;;;;;;;;;;;;26.45;61.23;96834.08;589448;240;66152;-74
2022/03/06 03:53:54;;;;;;;;;;;;;;;26.45;61.11;96832.17;589431;240;66527;-74
2022/03/06 03:56:21;;;;;;;;;;;;;;;26.43;61.64;96830.89;589436;240;63125;-75
2022/03/06 03:58:49;;;;;;;;;;;;;;;26.42;61.58;96834.70;589447;240;67112;-74
2022/03/06 04:01:17;;;;;;;;;;;;;;;26.41;59.50;96827.70;589447;240;66497;-74
2022/03/06 04:03:45;;;;;;;;;;;;;;;26.40;59.60;96828.81;589429;240;65122;-74
2022/03/06 04:06:13;;;;;;;;;;;;;;;26.41;60.60;96838.48;589440;239;69013;-75
2022/03/06 04:08:40;;;;;;;;;;;;;;;26.39;62.23;96840.71;589468;240;68533;-76
2022/03/06 04:11:08;;;;;;;;;;;;;;;26.39;62.63;96830.72;589438;240;65418;-76
2022/03/06 04:13:35;;;;;;;;;;;;;;;26.37;62.24;96826.75;589504;240;68725;-76
2022/03/06 04:16:03;;;;;;;;;;;;;;;26.36;59.47;96823.27;589425;240;68629;-76
2022/03/06 04:18:30;;;;;;;;;;;;;;;26.37;61.46;96827.53;589449;240;65345;-76
2022/03/06 04:20:58;;;;;;;;;;;;;;;26.35;60.67;96825.17;589451;240;66427;-76
2022/03/06 04:23:25;;;;;;;;;;;;;;;26.34;60.16;96823.56;589463;240;68631;-76
2022/03/06 04:25:53;;;;;;;;;;;;;;;26.32;62.12;96825.77;589465;240;63197;-76
2022/03/06 04:28:20;;;;;;;;;;;;;;;26.33;62.52;96826.58;589437;240;66320;-76
2022/03/06 04:30:48;;;;;;;;;;;;;;;26.31;62.34;96832.27;589427;240;68580;-76
2022/03/06 04:33:15;;;;;;;;;;;;;;;26.30;61.97;96830.69;589461;240;65495;-75
2022/03/06 04:35:43;;;;;;;;;;;;;;;26.29;61.99;96830.98;589412;240;68646;-75
2022/03/06 04:38:10;;;;;;;;;;;;;;;26.27;61.00;96827.80;589494;239;68500;-75
2022/03/06 04:40:38;;;;;;;;;;;;;;;26.29;60.69;96836.38;589420;240;65448;-76
2022/03/06 04:43:06;;;;;;;;;;;;;;;26.28;62.16;96830.20;588898;238;69245;-75
2022/03/06 04:45:33;;;;;;;;;;;;;;;26.25;60.52;96836.20;586693;242;68277;-75
2022/03/06 04:48:01;;;;;;;;;;;;;;;26.26;60.90;96834.30;586672;242;65123;-76
2022/03/06 04:50:28;;;;;;;;;;;;;;;26.23;60.30;96833.02;586708;242;68533;-76
2022/03/06 04:52:56;;;;;;;;;;;;;;;26.23;61.10;96838.41;586669;242;68835;-76
2022/03/06 04:55:23;;;;;;;;;;;;;;;26.22;62.43;96836.83;586637;242;63031;-75
2022/03/06 04:57:51;;;;;;;;;;;;;;;26.17;62.09;96836.95;586660;242;66200;-76
2022/03/06 05:00:19;;;;;;;;;;;;;;;26.19;62.30;96837.45;590257;239;67070;-76
2022/03/06 05:02:46;;;;;;;;;;;;;;;26.19;60.68;96832.06;586710;242;65458;-76
2022/03/06 05:05:14;;;;;;;;;;;;;;;26.18;61.41;96833.15;586732;242;68618;-75
2022/03/06 05:07:41;;;;;;;;;;;;;;;26.17;62.34;96839.65;586633;242;68584;-75
2022/03/06 05:10:09;;;;;;;;;;;;;;;26.16;63.25;96840.73;586691;242;65507;-76
2022/03/06 05:12:38;;;;;;;;;;;;;;;26.16;62.98;96842.64;586672;242;68599;-75
2022/03/06 05:15:06;;;;;;;;;;;;;;;26.11;62.62;96840.89;586649;242;66442;-75
2022/03/06 05:17:34;;;;;;;;;;;;;;;26.12;62.36;96840.56;586684;242;63020;-76
2022/03/06 05:20:03;;;;;;;;;;;;;;;26.10;62.95;96844.67;586654;242;66780;-76
2022/03/06 05:22:30;;;;;;;;;;;;;;;26.09;59.77;96849.27;586626;242;66431;-75
2022/03/06 05:24:58;;;;;;;;;;;;;;;26.11;61.83;96840.89;586676;242;63066;-75
2022/03/06 05:27:28;;;;;;;;;;;;;;;26.09;63.70;96846.57;586661;242;68735;-75
2022/03/06 05:29:56;;;;;;;;;;;;;;;26.07;61.65;96854.16;586685;242;69389;-75
2022/03/06 05:32:23;;;;;;;;;;;;;;;26.06;62.77;96855.27;586687;242;65428;-75
2022/03/06 05:34:51;;;;;;;;;;;;;;;26.06;62.77;96859.87;586595;242;68693;-76
2022/03/06 05:37:19;;;;;;;;;;;;;;;26.04;62.79;96856.68;586638;240;68564;-76
2022/03/06 05:39:46;;;;;;;;;;;;;;;26.05;62.99;96863.64;586662;242;65389;-76
2022/03/06 05:42:14;;;;;;;;;;;;;;;26.03;62.07;96855.10;586700;242;68631;-75
2022/03/06 05:44:42;;;;;;;;;;;;;;;26.02;61.31;96856.19;588054;241;67441;-75
2022/03/06 05:47:09;;;;;;;;;;;;;;;26.01;63.88;96854.61;588321;241;65370;-75
2022/03/06 05:49:37;;;;;;;;;;;;;;;26.01;63.86;96857.30;588311;241;68659;-75
2022/03/06 05:52:04;;;;;;;;;;;;;;;25.99;62.44;96857.59;588335;241;69527;-75
2022/03/06 05:54:32;;;;;;;;;;;;;;;25.97;62.98;96850.92;588341;241;63079;-76
2022/03/06 05:57:00;;;;;;;;;;;;;;;25.96;63.38;96858.21;588363;241;66406;-76
2022/03/06 05:59:27;;;;;;;;;;;;;;;25.93;61.07;96855.34;588356;241;66280;-75
2022/03/06 06:01:55;;;;;;;;;;;;;;;25.95;63.32;96855.84;588322;241;65351;-75
2022/03/06 06:04:22;;;;;;;;;;;;;;;25.94;62.72;96863.09;588312;240;68655;-75
2022/03/06 06:06:50;;;;;;;;;;;;;;;25.90;59.94;96862.92;588313;241;68835;-75
2022/03/06 06:09:19;;;;;;;;;;;;;;;25.93;62.27;96866.11;588461;240;42650;-75
2022/03/06 06:11:47;;;;;;;;;;;;;;;25.94;62.91;96865.00;588222;240;68735;-75
2022/03/06 06:14:14;;;;;;;;;;;;;;;25.90;63.21;96865.62;588287;241;66548;-75
2022/03/06 06:16:42;;;;;;;;;;;;;;;25.89;63.38;96869.42;588308;241;65204;-75
2022/03/06 06:19:10;;;;;;;;;;;;;;;25.87;61.20;96874.31;588235;241;68676;-75
2022/03/06 06:21:37;;;;;;;;;;;;;;;25.85;62.66;96871.13;588372;241;66701;-75
2022/03/06 06:24:07;;;;;;;;;;;;;;;25.83;62.73;96878.70;588334;241;63086;-75
2022/03/06 06:26:34;;;;;;;;;;;;;;;25.82;64.12;96876.30;588234;241;66156;-75
2022/03/06 06:29:03;;;;;;;;;;;;;;;25.82;64.11;96882.47;588289;241;68386;-75
2022/03/06 06:31:32;;;;;;;;;;;;;;;25.81;62.90;96883.59;588098;241;46613;-75
2022/03/06 06:34:00;;;;;;;;;;;;;;;25.82;62.21;96874.40;587972;241;66643;-75
2022/03/06 06:36:28;;;;;;;;;;;;;;;25.80;63.02;96886.57;588247;241;68842;-75
2022/03/06 06:38:57;;;;;;;;;;;;;;;25.78;63.18;96886.89;588328;241;65145;-76
2022/03/06 06:41:24;;;;;;;;;;;;;;;25.78;61.49;96889.59;588299;241;68813;-75
2022/03/06 06:43:52;;;;;;;;;;;;;;;25.76;63.71;96889.09;588639;240;68594;-75
2022/03/06 06:46:21;;;;;;;;;;;;;;;25.78;62.44;96886.08;589366;239;42623;-75
2022/03/06 06:48:49;;;;;;;;;;;;;;;25.75;62.18;96897.45;589469;240;68661;-75
2022/03/06 06:51:16;;;;;;;;;;;;;;;25.72;63.99;96888.09;589396;240;66519;-75
2022/03/06 06:53:44;;;;;;;;;;;;;;;25.72;62.92;96888.09;589333;240;62915;-75
2022/03/06 06:56:11;;;;;;;;;;;;;;;25.74;63.71;96890.48;589327;240;66512;-75
2022/03/06 06:58:40;;;;;;;;;;;;;;;25.71;62.77;96891.10;589564;238;47957;-75
2022/03/06 07:01:09;;;;;;;;;;;;;;;25.69;62.51;96891.39;589316;239;65418;-75
2022/03/06 07:03:39;;;;;;;;;;;;;;;25.70;62.91;96884.93;589323;240;68668;-75
2022/03/06 07:06:06;;;;;;;;;;;;;;;25.67;64.09;96886.33;589350;237;68619;-75
2022/03/06 07:08:33;;;;;;;;;;;;;;;25.66;63.56;96889.31;588703;238;65225;-75
2022/03/06 07:11:02;;;;;;;;;;;;;;;25.65;63.33;96880.45;589322;240;68910;-75
2022/03/06 07:13:31;;;;;;;;;;;;;;;25.67;60.47;96890.89;589460;240;67110;-75
2022/03/06 07:15:58;;;;;;;;;;;;;;;25.68;63.29;96892.50;589418;240;65449;-75
2022/03/06 07:18:26;;;;;;;;;;;;;;;25.64;61.92;96883.44;588798;240;68828;-75
2022/03/06 07:20:53;;;;;;;;;;;;;;;25.65;62.04;96883.14;589224;240;68982;-75
2022/03/06 07:23:21;;;;;;;;;;;;;;;25.63;62.41;96877.27;589357;240;63158;-75
2022/03/06 07:25:49;;;;;;;;;;;;;;;25.66;61.55;96881.23;589262;240;69017;-75
2022/03/06 07:28:17;;;;;;;;;;;;;;;25.66;62.14;96881.23;589391;240;66548;-75
2022/03/06 07:30:49;;;;;;;;;;;;;;;25.64;62.36;96888.81;589287;240;64100;-74
2022/03/06 07:33:14;;;;;;;;;;;;;;;25.60;60.42;96883.25;589163;239;66510;-74
2022/03/06 07:35:42;;;;;;;;;;;;;;;25.63;62.63;96884.55;592564;239;71485;-73
2022/03/06 07:38:09;;;;;;;;;;;;;;;25.62;62.81;96882.97;578661;240;68630;-73
2022/03/06 07:40:39;;;;;;;;;;;;;;;25.66;63.15;96889.31;589367;239;47945;-73
2022/03/06 07:43:08;;;;;;;;;;;;;;;25.62;63.93;96888.34;588866;240;68335;-74
2022/03/06 07:45:36;;;;;;;;;;;;;;;25.63;63.44;96882.64;586551;240;65322;-74
2022/03/06 07:48:05;;;;;;;;;;;;;;;25.63;64.15;96885.33;586668;242;68552;-71
2022/03/06 07:50:32;;;;;;;;;;;;;;;25.64;63.26;96884.22;586627;242;69246;-67
2022/03/06 07:53:00;;;;;;;;;;;;;;;25.63;61.44;96879.16;586576;242;65257;-66
2022/03/06 07:55:30;;;;;;;;;;;;;;;25.62;62.67;96877.58;586486;242;66383;-66
2022/03/06 07:57:57;;;;;;;;;;;;;;;25.64;63.40;96883.44;586638;242;66193;-66
2022/03/06 08:00:25;;;;;;;;;;;;;;;25.64;63.28;96886.13;586563;242;63305;-65
2022/03/06 08:02:55;;;;;;;;;;;;;;;25.64;63.66;96880.73;586700;242;68816;-73
2022/03/06 08:05:22;;;;;;;;;;;;;;;25.67;62.76;96885.52;586485;240;68643;-72
2022/03/06 08:07:49;;;;;;;;;;;;;;;25.63;62.40;96879.16;586590;242;65506;-72
2022/03/06 08:10:18;;;;;;;;;;;;;;;25.66;58.63;96878.55;586462;239;48608;-73
2022/03/06 08:12:47;;;;;;;;;;;;;;;25.68;62.77;96882.53;586631;242;68561;-73
2022/03/06 08:15:15;;;;;;;;;;;;;;;25.70;62.53;96879.55;586594;242;63072;-73
2022/03/06 08:17:42;;;;;;;;;;;;;;;25.71;63.49;96880.34;586659;242;68620;-73
2022/03/06 08:20:10;;;;;;;;;;;;;;;25.71;63.70;96872.27;586413;242;68539;-71
2022/03/06 08:22:38;;;;;;;;;;;;;;;25.74;61.83;96871.65;586652;242;66414;-71
2022/03/06 08:25:06;;;;;;;;;;;;;;;25.76;63.69;96874.84;586535;242;68599;-71
2022/03/06 08:27:37;;;;;;;;;;;;;;;25.75;62.49;96873.23;585914;242;68455;-72
2022/03/06 08:30:05;;;;;;;;;;;;;;;25.76;63.44;96883.70;585926;242;65446;-73
2022/03/06 08:32:33;;;;;;;;;;;;;;;25.75;63.27;96875.92;586645;242;68855;-73
2022/03/06 08:35:05;;;;;;;;;;;;;;;25.77;63.61;96879.11;586346;242;68848;-72
2022/03/06 08:37:38;;;;;;;;;;;;;;;25.77;62.98;96877.20;586383;240;45913;-72
2022/03/06 08:40:04;;;;;;;;;;;;;;;25.78;63.49;96876.13;586538;241;68775;-73
2022/03/06 08:42:32;;;;;;;;;;;;;;;25.80;63.62;96875.80;586580;242;68633;-73
2022/03/06 08:44:59;;;;;;;;;;;;;;;25.81;62.83;96880.89;586481;240;65563;-73
2022/03/06 08:47:27;;;;;;;;;;;;;;;25.83;62.45;96881.39;586591;242;69541;-73
2022/03/06 08:49:54;;;;;;;;;;;;;;;25.84;62.75;96885.70;586657;242;66605;-73
2022/03/06 08:52:23;;;;;;;;;;;;;;;25.85;63.51;96879.20;586671;242;65412;-73
2022/03/06 08:54:51;;;;;;;;;;;;;;;25.86;63.34;96875.42;586616;242;69192;-71
2022/03/06 08:57:18;;;;;;;;;;;;;;;25.87;63.26;96877.00;586643;242;68588;-71
2022/03/06 08:59:46;;;;;;;;;;;;;;;25.90;62.91;96880.98;586435;242;66328;-70
2022/03/06 09:02:15;;;;;;;;;;;;;;;25.91;63.13;96885.25;586651;242;68895;-74
2022/03/06 09:04:45;;;;;;;;;;;;;;;25.93;63.49;96893.04;586651;242;68622;-72
2022/03/06 09:07:12;;;;;;;;;;;;;;;25.94;62.34;96889.23;586622;242;65573;-72
2022/03/06 09:09:40;;;;;;;;;;;;;;;25.96;63.59;96898.59;586700;242;68658;-71
2022/03/06 09:12:07;;;;;;;;;;;;;;;25.98;62.94;96896.41;586337;242;68589;-72
2022/03/06 09:14:35;;;;;;;;;;;;;;;25.99;63.22;96897.98;586511;242;65368;-73
2022/03/06 09:17:02;;;;;;;;;;;;;;;26.03;63.92;96890.89;586604;242;69027;-73
2022/03/06 09:19:30;;;;;;;;;;;;;;;26.04;63.14;96895.17;586490;242;68680;-72
2022/03/06 09:21:57;;;;;;;;;;;;;;;26.05;62.89;96902.14;586582;242;65522;-76
2022/03/06 09:24:31;;;;;;;;;;;;;;;26.08;63.35;96900.73;586524;242;69013;-75
2022/03/06 09:26:58;;;;;;;;;;;;;;;26.09;63.15;96903.12;586641;242;68739;-75
2022/03/06 09:29:27;;;;;;;;;;;;;;;26.11;63.57;96906.31;586589;242;65348;-75
2022/03/06 09:31:55;;;;;;;;;;;;;;;26.14;63.17;96902.22;586554;242;66539;-75
2022/03/06 09:34:22;;;;;;;;;;;;;;;26.16;61.93;96905.38;586610;242;66580;-75
2022/03/06 09:36:50;;;;;;;;;;;;;;;26.20;62.98;96902.88;586585;242;65222;-75
2022/03/06 09:39:17;;;;;;;;;;;;;;;26.21;63.13;96897.17;586605;242;68618;-75
2022/03/06 09:41:46;;;;;;;;;;;;;;;26.23;62.19;96908.44;586575;242;68446;-75
2022/03/06 09:44:13;;;;;;;;;;;;;;;26.26;61.94;96904.34;586602;240;67344;-75
2022/03/06 09:46:41;;;;;;;;;;;;;;;26.30;62.32;96906.13;586673;242;68910;-75
2022/03/06 09:49:09;;;;;;;;;;;;;;;26.32;62.88;96913.87;586659;242;67448;-75
2022/03/06 09:51:40;;;;;;;;;;;;;;;26.33;62.32;96910.89;586594;242;63048;-76
2022/03/06 09:54:09;;;;;;;;;;;;;;;26.37;62.29;96915.66;586679;242;68667;-76
2022/03/06 09:56:39;;;;;;;;;;;;;;;26.39;62.48;96916.15;586692;239;66652;-75
2022/03/06 09:59:07;;;;;;;;;;;;;;;26.42;62.33;96910.14;586636;242;63035;-76
2022/03/06 10:01:35;;;;;;;;;;;;;;;26.45;61.61;96909.52;586703;242;68773;-75
2022/03/06 10:04:21;;;;;;;;;;;;;;;26.46;62.69;96898.41;586609;242;68716;-75
2022/03/06 10:07:05;;;;;;;;;;;;;;;26.50;62.46;96904.00;586668;242;65249;-77
2022/03/06 10:09:34;;;;;;;;;;;;;;;26.53;61.28;96904.20;586617;242;68364;-73
2022/03/06 10:12:02;;;;;;;;;;;;;;;26.54;60.87;96905.78;586643;242;66314;-73
2022/03/06 10:14:42;;;;;;;;;;;;;;;26.58;60.51;96894.41;586623;242;65346;-73
2022/03/06 10:17:14;;;;;;;;;;;;;;;26.60;61.29;96892.99;586634;242;48576;-72
2022/03/06 10:19:51;;;;;;;;;;;;;;;26.62;60.80;96896.15;584721;241;66697;-73
2022/03/06 10:22:21;;;;;;;;;;;;;;;26.62;59.58;96895.36;586486;242;43135;-73
2022/03/06 10:24:53;;;;;;;;;;;;;;;26.67;57.46;96895.23;586634;242;68747;-73
2022/03/06 10:27:38;;;;;;;;;;;;;;;26.72;58.88;96895.88;586663;242;66637;-73
2022/03/06 10:30:11;;;;;;;;;;;;;;;26.74;60.84;96890.98;586652;242;63289;-73
2022/03/06 10:32:44;;;;;;;;;;;;;;;26.78;58.77;96883.05;584451;240;66460;-73
2022/03/06 10:35:12;;;;;;;;;;;;;;;26.78;59.98;96878.45;586714;242;66618;-72
2022/03/06 10:37:39;;;;;;;;;;;;;;;26.82;59.99;96875.13;586644;242;63580;-72
2022/03/06 10:40:07;;;;;;;;;;;;;;;26.85;58.62;96882.62;586615;242;68496;-73
2022/03/06 10:42:36;;;;;;;;;;;;;;;26.87;59.06;96875.78;586656;242;68474;-73
2022/03/06 10:45:04;;;;;;;;;;;;;;;26.89;59.94;96878.97;586602;240;65340;-73
2022/03/06 10:47:33;;;;;;;;;;;;;;;26.91;58.27;96874.06;586687;242;68692;-72
2022/03/06 10:50:05;;;;;;;;;;;;;;;26.93;58.63;96874.55;586479;240;66461;-72
2022/03/06 10:52:34;;;;;;;;;;;;;;;26.94;58.62;96859.95;586630;242;63328;-73
2022/03/06 10:55:03;;;;;;;;;;;;;;;26.96;58.72;96871.23;586569;240;68672;-73
2022/03/06 10:57:30;;;;;;;;;;;;;;;26.98;58.81;96869.02;586665;242;68094;-72
2022/03/06 11:00:00;;;;;;;;;;;;;;;27.01;59.57;96867.59;586711;242;46603;-73
2022/03/06 11:02:28;;;;;;;;;;;;;;;26.99;58.98;96861.72;586624;242;66453;-73
2022/03/06 11:04:58;;;;;;;;;;;;;;;27.03;59.22;96859.17;586566;242;68942;-73
2022/03/06 11:07:27;;;;;;;;;;;;;;;27.04;58.97;96861.58;586535;242;64969;-72
2022/03/06 11:09:57;;;;;;;;;;;;;;;26.98;58.36;96857.41;586286;240;68674;-72
2022/03/06 11:12:25;;;;;;;;;;;;;;;27.03;58.43;96849.17;586566;242;68666;-72
2022/03/06 11:14:53;;;;;;;;;;;;;;;27.05;58.20;96851.57;586671;242;63067;-71
2022/03/06 11:17:21;;;;;;;;;;;;;;;27.06;58.05;96843.15;586620;242;68566;-72
2022/03/06 11:19:48;;;;;;;;;;;;;;;27.07;56.56;96839.36;586597;242;68553;-72
2022/03/06 11:22:29;;;;;;;;;;;;;;;27.10;57.38;96843.34;586665;242;65422;-72
2022/03/06 11:24:58;;;;;;;;;;;;;;;27.12;56.00;96841.91;586470;240;67167;-72
2022/03/06 11:27:36;;;;;;;;;;;;;;;27.13;57.28;96837.31;586546;242;66403;-72
2022/03/06 11:30:05;;;;;;;;;;;;;;;27.14;55.94;96839.67;586554;240;65592;-71
2022/03/06 11:32:35;;;;;;;;;;;;;;;27.15;56.37;96835.09;586641;242;69256;-72
2022/03/06 11:35:04;;;;;;;;;;;;;;;27.16;55.72;96826.70;586609;242;68771;-72
2022/03/06 11:37:33;;;;;;;;;;;;;;;27.18;56.57;96821.00;586537;240;64467;-71
2022/03/06 11:40:00;;;;;;;;;;;;;;;27.19;55.70;96815.27;586481;240;66486;-72
2022/03/06 11:42:46;;;;;;;;;;;;;;;27.20;56.79;96814.19;586629;242;66452;-72
2022/03/06 11:45:15;;;;;;;;;;;;;;;27.21;56.53;96812.27;586691;242;65379;-72
2022/03/06 11:47:42;;;;;;;;;;;;;;;27.21;56.35;96813.06;586305;242;66180;-72
2022/03/06 11:50:11;;;;;;;;;;;;;;;27.22;56.46;96801.16;586585;242;66249;-72
2022/03/06 11:52:41;;;;;;;;;;;;;;;27.23;56.81;96810.06;586409;240;65242;-72
2022/03/06 11:55:26;;;;;;;;;;;;;;;27.26;55.98;96808.64;586626;242;66082;-72
2022/03/06 11:57:53;;;;;;;;;;;;;;;27.27;55.86;96802.91;586637;242;68354;-72
2022/03/06 12:00:23;;;;;;;;;;;;;;;27.28;55.09;96801.78;586609;242;65184;-72
2022/03/06 12:02:52;;;;;;;;;;;;;;;27.30;56.35;96804.18;586652;242;66361;-72
2022/03/06 12:05:37;;;;;;;;;;;;;;;27.30;55.65;96796.88;586576;242;68386;-72
2022/03/06 12:08:06;;;;;;;;;;;;;;;27.33;55.58;96804.33;586636;242;63120;-72
2022/03/06 12:10:34;;;;;;;;;;;;;;;27.34;55.01;96799.75;586451;240;68442;-71
2022/03/06 12:13:02;;;;;;;;;;;;;;;27.35;55.17;96794.02;586651;242;68442;-72
2022/03/06 12:15:32;;;;;;;;;;;;;;;27.37;55.62;96788.31;586669;242;65510;-72
2022/03/06 12:18:05;;;;;;;;;;;;;;;27.38;55.44;96776.41;586637;242;66707;-72
2022/03/06 12:20:43;;;;;;;;;;;;;;;27.40;55.46;96779.59;586551;242;68860;-71
2022/03/06 12:23:22;;;;;;;;;;;;;;;27.41;55.54;96771.16;586584;242;65402;-71
2022/03/06 12:25:53;;;;;;;;;;;;;;;27.43;54.61;96771.64;586639;242;68751;-71
2022/03/06 12:28:22;;;;;;;;;;;;;;;27.45;55.66;96765.93;586584;242;68565;-72
2022/03/06 12:30:50;;;;;;;;;;;;;;;27.47;55.71;96769.08;586704;242;63271;-73
2022/03/06 12:33:30;;;;;;;;;;;;;;;27.48;55.29;96767.98;586668;239;66747;-72
2022/03/06 12:36:11;;;;;;;;;;;;;;;27.49;54.90;96766.08;586442;240;69294;-71
2022/03/06 12:38:40;;;;;;;;;;;;;;;27.51;54.82;96774.66;586445;240;65558;-72
2022/03/06 12:41:07;;;;;;;;;;;;;;;27.53;55.03;96770.53;586569;242;68399;-72
2022/03/06 12:43:37;;;;;;;;;;;;;;;27.55;55.51;96767.49;586596;240;66581;-72
2022/03/06 12:46:04;;;;;;;;;;;;;;;27.56;54.90;96780.69;586649;242;63001;-72
2022/03/06 12:48:32;;;;;;;;;;;;;;;27.58;54.38;96773.06;586665;242;66678;-72
2022/03/06 12:51:00;;;;;;;;;;;;;;;27.59;54.49;96777.34;586665;242;68792;-72
2022/03/06 12:53:28;;;;;;;;;;;;;;;27.62;54.75;96774.00;586660;242;65116;-72
2022/03/06 12:55:56;;;;;;;;;;;;;;;27.62;54.76;96768.59;586655;242;68655;-72